Ksl Sapporo — VRNH7 — position and weather

sailwx.info

Track history (hours):
 
Tides and Currents Weather Stations Pressure Air Temp Water Temp Dewpoint Dewpoint Depression Visibility Wind Speed Wind Dir Waves Ship Positions

Ksl Sapporo

Last reported at 2017-Dec-03 18:05 UTC. Time now 2018-Jan-21 14:59 UTC.
Position N 35°58' W 005°37'.
Warning: this ship's position is 48 days out of date.

Length 292 m; draft 9.2 m.

Type: Cargo ship. MMSI: 477271100.

Date/timePositionNaut miles runAvg speedWind from/ knotsBaromVisibWave heightAir tempDewpointWater temp
2017-Dec-03 18:05N 35°58' W 005°37'2 9.4
2017-Dec-03 17:54N 35°58' W 005°35'4 9.0
2017-Dec-03 17:30N 35°59' W 005°30'5 9.3
2017-Dec-03 17:00N 36°01' W 005°25'3 6.8
2017-Dec-03 16:31N 36°04' W 005°23'4 6.7
2017-Dec-03 15:57N 36°08' W 005°23'0 0.2
2017-Dec-03 15:23N 36°08' W 005°23'0 0.0
2017-Dec-03 14:59N 36°08' W 005°23'0 0.1
2017-Dec-03 14:26N 36°08' W 005°23'0 0.2
2017-Dec-03 13:59N 36°08' W 005°23'0 0.0
2017-Dec-03 08:05N 36°08' W 005°23'0 0.0
2017-Dec-03 07:59N 36°08' W 005°23'0 0.1
2017-Dec-03 07:29N 36°08' W 005°23'0 0.0
2017-Dec-03 06:59N 36°08' W 005°23'0 0.0
2017-Dec-03 06:29N 36°08' W 005°23'0 0.0
2017-Dec-03 05:59N 36°08' W 005°23'0 0.0
2017-Dec-03 05:26N 36°08' W 005°23'0 0.0
2017-Dec-03 04:50N 36°08' W 005°23'0 0.0
2017-Dec-03 04:20N 36°08' W 005°23'0 0.0
2017-Dec-03 03:41N 36°08' W 005°23'0 0.0
2017-Dec-03 03:20N 36°08' W 005°23'0 0.0
2017-Dec-03 02:56N 36°08' W 005°23'0 0.0
2017-Dec-03 02:29N 36°08' W 005°23'0 0.1
2017-Dec-03 01:56N 36°08' W 005°23'0 0.0
2017-Dec-02 22:05N 36°08' W 005°23'0 0.3
2017-Dec-02 21:59N 36°08' W 005°23'1 1.4
2017-Dec-02 21:22N 36°07' W 005°22'2 4.4
2017-Dec-02 20:55N 36°05' W 005°21'3 8.0
2017-Dec-02 20:30N 36°05' W 005°17'  
2017-Nov-29 01:43N 36°36' E 013°39'210.7
2017-Nov-29 01:30N 36°35' E 013°42'510.6
2017-Nov-29 00:59N 36°33' E 013°48'510.4
2017-Nov-29 00:30N 36°31' E 013°53'510.4
2017-Nov-28 23:59N 36°29' E 013°60'510.4
2017-Nov-28 23:30N 36°27' E 014°05'510.2
2017-Nov-28 22:59N 36°26' E 014°12'510.3
2017-Nov-28 22:30N 36°24' E 014°17'510.3
2017-Nov-28 22:00N 36°22' E 014°23'510.5
2017-Nov-28 21:30N 36°20' E 014°29'510.1
2017-Nov-28 21:00N 36°18' E 014°35'510.3
2017-Nov-28 20:30N 36°16' E 014°41'510.0
2017-Nov-28 20:00N 36°14' E 014°47'5 9.8
2017-Nov-28 19:29N 36°12' E 014°53'410 9.7
2017-Nov-27 01:24N 34°41' E 023°03'613.6
2017-Nov-27 00:57N 34°39' E 023°10'9013.0
2017-Nov-26 18:03N 34°35' E 024°59'312.4
2017-Nov-26 17:47N 34°35' E 025°03'612.3
2017-Nov-26 17:18N 34°35' E 025°10'1212.1
2017-Nov-26 16:17N 34°35' E 025°25'1212.0
2017-Nov-26 15:15N 34°35' E 025°40'312.0
2017-Nov-26 14:58N 34°35' E 025°44'1012.5
2017-Nov-26 14:08N 34°35' E 025°57'213.1
2017-Nov-26 14:00N 34°35' E 025°59'  
Track history (hours):
 
Tides and Currents Weather Stations Pressure Air Temp Water Temp Dewpoint Dewpoint Depression Visibility Wind Speed Wind Dir Waves Ship Positions

Ksl Sapporo

Last reported at 2017-Dec-03 18:05 UTC. Time now 2018-Jan-21 14:59 UTC.
Position N 35°58' W 005°37'.
Warning: this ship's position is 48 days out of date.

Length 292 m; draft 9.2 m.

Type: Cargo ship. MMSI: 477271100.

Date/timePositionNaut miles runAvg speedWind from/ knotsBaromVisibWave heightAir tempDewpointWater temp
2017-Dec-03 18:05N 35°58' W 005°37'2 9.4
2017-Dec-03 17:54N 35°58' W 005°35'4 9.0
2017-Dec-03 17:30N 35°59' W 005°30'5 9.3
2017-Dec-03 17:00N 36°01' W 005°25'3 6.8
2017-Dec-03 16:31N 36°04' W 005°23'4 6.7
2017-Dec-03 15:57N 36°08' W 005°23'0 0.2
2017-Dec-03 15:23N 36°08' W 005°23'0 0.0
2017-Dec-03 14:59N 36°08' W 005°23'0 0.1
2017-Dec-03 14:26N 36°08' W 005°23'0 0.2
2017-Dec-03 13:59N 36°08' W 005°23'0 0.0
2017-Dec-03 08:05N 36°08' W 005°23'0 0.0
2017-Dec-03 07:59N 36°08' W 005°23'0 0.1
2017-Dec-03 07:29N 36°08' W 005°23'0 0.0
2017-Dec-03 06:59N 36°08' W 005°23'0 0.0
2017-Dec-03 06:29N 36°08' W 005°23'0 0.0
2017-Dec-03 05:59N 36°08' W 005°23'0 0.0
2017-Dec-03 05:26N 36°08' W 005°23'0 0.0
2017-Dec-03 04:50N 36°08' W 005°23'0 0.0
2017-Dec-03 04:20N 36°08' W 005°23'0 0.0
2017-Dec-03 03:41N 36°08' W 005°23'0 0.0
2017-Dec-03 03:20N 36°08' W 005°23'0 0.0
2017-Dec-03 02:56N 36°08' W 005°23'0 0.0
2017-Dec-03 02:29N 36°08' W 005°23'0 0.1
2017-Dec-03 01:56N 36°08' W 005°23'0 0.0
2017-Dec-02 22:05N 36°08' W 005°23'0 0.3
2017-Dec-02 21:59N 36°08' W 005°23'1 1.4
2017-Dec-02 21:22N 36°07' W 005°22'2 4.4
2017-Dec-02 20:55N 36°05' W 005°21'3 8.0
2017-Dec-02 20:30N 36°05' W 005°17'  
2017-Nov-29 01:43N 36°36' E 013°39'210.7
2017-Nov-29 01:30N 36°35' E 013°42'510.6
2017-Nov-29 00:59N 36°33' E 013°48'510.4
2017-Nov-29 00:30N 36°31' E 013°53'510.4
2017-Nov-28 23:59N 36°29' E 013°60'510.4
2017-Nov-28 23:30N 36°27' E 014°05'510.2
2017-Nov-28 22:59N 36°26' E 014°12'510.3
2017-Nov-28 22:30N 36°24' E 014°17'510.3
2017-Nov-28 22:00N 36°22' E 014°23'510.5
2017-Nov-28 21:30N 36°20' E 014°29'510.1
2017-Nov-28 21:00N 36°18' E 014°35'510.3
2017-Nov-28 20:30N 36°16' E 014°41'510.0
2017-Nov-28 20:00N 36°14' E 014°47'5 9.8
2017-Nov-28 19:29N 36°12' E 014°53'410 9.7
2017-Nov-27 01:24N 34°41' E 023°03'613.6
2017-Nov-27 00:57N 34°39' E 023°10'9013.0
2017-Nov-26 18:03N 34°35' E 024°59'312.4
2017-Nov-26 17:47N 34°35' E 025°03'612.3
2017-Nov-26 17:18N 34°35' E 025°10'1212.1
2017-Nov-26 16:17N 34°35' E 025°25'1212.0
2017-Nov-26 15:15N 34°35' E 025°40'312.0
2017-Nov-26 14:58N 34°35' E 025°44'1012.5
2017-Nov-26 14:08N 34°35' E 025°57'213.1
2017-Nov-26 14:00N 34°35' E 025°59'  

Dump ship's entire track history